Weather History for KMGN - August, 2014

Change the Weather History Date:

Thursday, August 14, 2014

  Actual Average (KPLN) Record (KPLN)
Temperature  
Mean Temperature 56 °F -  
Max Temperature 66 °F 76 °F 95 °F (1965)
Min Temperature 47 °F 53 °F 36 °F (1961)
Degree Days  
Heating Degree Days 8    
Growing Degree Days 6 (Base 50)    
Moisture  
Dew Point 43 °F    
Average Humidity 64    
Maximum Humidity 92    
Minimum Humidity 37    
Precipitation  
Precipitation 0.00 in - - ()
Sea Level Pressure  
Sea Level Pressure 30.03 in    
Wind  
Wind Speed 6 mph (NW)    
Max Wind Speed 16 mph    
Max Gust Speed 24 mph    
Visibility 10 miles    
Events      
Averages and records for this station are not official NWS values.
T = Trace of Precipitation, MM = Missing Value Source: NWS Daily Summary

Daily Weather History Graph

Daily Weather History Graph

Search for Another Location

Airport or City:

Trip Planner

Search our weather history database for the weather conditions in past years. The results will help you decide how hot, cold, wet, or windy it might be!

Date:

Astronomy

Aug. 14, 2014 Rise Set
Actual Time 6:39 AM EDT 8:48 PM EDT
Civil Twilight 6:06 AM EDT 9:20 PM EDT
Nautical Twilight 5:26 AM EDT 10:00 PM EDT
Astronomical Twilight 4:42 AM EDT 10:44 PM EDT
Moon 10:54 PM EDT (8/14) 11:30 AM EDT (8/14)
Length of Visible Light 15h 13m
Length of Day
14h 09m
Waning Gibbous, 79% of the Moon is Illuminated
Aug 14
Waning Gibbous
Aug 17
Last Quarter
Aug 25
New
Sep 2
First Quarter
Sep 8
Full

Hourly Weather History & Observations

Time (EDT) Temp. Dew Point Humidity Pressure Visibility Wind Dir Wind Speed Gust Speed Precip Events Conditions
12:15 AM 51.1 °F 46.0 °F 83% 30.04 in 10.0 mi WNW 3.5 mph - N/A   Clear
12:34 AM 50.7 °F 46.0 °F 84% 30.05 in 10.0 mi WNW 3.5 mph - N/A   Clear
12:55 AM 49.6 °F 46.4 °F 89% 30.05 in 10.0 mi WNW 4.6 mph - N/A   Clear
1:15 AM 49.5 °F 46.4 °F 89% 30.04 in 10.0 mi WNW 4.6 mph - N/A   Clear
1:34 AM 51.1 °F 46.8 °F 85% 30.04 in 10.0 mi NW 4.6 mph - N/A   Clear
1:55 AM 48.6 °F 46.0 °F 91% 30.04 in 10.0 mi NW 3.5 mph - N/A   Clear
2:15 AM 48.7 °F 46.0 °F 90% 30.04 in 10.0 mi NW 3.5 mph - N/A   Clear
2:34 AM 48.4 °F 46.0 °F 92% 30.04 in 10.0 mi NW 3.5 mph - N/A   Clear
2:55 AM 48.6 °F 45.9 °F 90% 30.04 in 10.0 mi Calm Calm - N/A   Clear
3:15 AM 48.0 °F 45.7 °F 92% 30.04 in 10.0 mi NNW 4.6 mph - N/A   Clear
3:35 AM 49.6 °F 46.2 °F 88% 30.04 in 10.0 mi NNW 4.6 mph - N/A   Clear
3:55 AM 49.1 °F 45.7 °F 88% 30.04 in 10.0 mi NNW 4.6 mph - N/A   Clear
4:15 AM 48.7 °F 45.9 °F 90% 30.04 in 10.0 mi NNW 4.6 mph - N/A   Clear
4:34 AM 48.7 °F 45.7 °F 89% 30.04 in 10.0 mi NNW 5.8 mph - N/A   Clear
4:55 AM 48.4 °F 45.5 °F 90% 30.04 in 10.0 mi NNW 5.8 mph - N/A   Clear
5:14 AM 48.2 °F 45.5 °F 90% 30.03 in 10.0 mi NNW 5.8 mph - N/A   Clear
5:35 AM 47.7 °F 45.5 °F 92% 30.03 in 10.0 mi NNW 5.8 mph - N/A   Clear
5:55 AM 47.8 °F 45.5 °F 92% 30.04 in 10.0 mi NNW 6.9 mph - N/A   Clear
6:15 AM 47.8 °F 45.3 °F 91% 30.04 in 10.0 mi NNW 5.8 mph - N/A   Clear
6:34 AM 47.5 °F 45.0 °F 91% 30.04 in 10.0 mi NNW 5.8 mph - N/A   Clear
6:55 AM 47.3 °F 45.1 °F 92% 30.04 in 10.0 mi NNW 4.6 mph - N/A   Clear
7:14 AM 47.5 °F 45.0 °F 91% 30.05 in 10.0 mi NNW 5.8 mph - N/A   Clear
7:35 AM 50.0 °F 46.8 °F 89% 30.04 in 10.0 mi NW 4.6 mph - N/A   Clear
7:54 AM 52.9 °F 47.3 °F 81% 30.05 in 10.0 mi WNW 4.6 mph - N/A   Clear
8:15 AM 54.5 °F 47.7 °F 78% 30.05 in 10.0 mi West 3.5 mph - N/A   Clear
8:34 AM 55.4 °F 49.1 °F 79% 30.05 in 10.0 mi WSW 3.5 mph - N/A   Clear
8:55 AM 57.6 °F 48.4 °F 71% 30.06 in 10.0 mi West 4.6 mph - N/A   Clear
9:15 AM 58.3 °F 45.9 °F 63% 30.06 in 10.0 mi NNW 8.1 mph 17.3 mph N/A   Clear
9:34 AM 58.6 °F 44.6 °F 60% 30.06 in 10.0 mi NNW 8.1 mph - N/A   Clear
9:55 AM 58.6 °F 43.7 °F 58% 30.06 in 10.0 mi North 10.4 mph - N/A   Clear
10:15 AM 59.5 °F 43.7 °F 56% 30.06 in 10.0 mi North 6.9 mph 18.4 mph N/A   Scattered Clouds
10:35 AM 59.0 °F 40.5 °F 50% 30.07 in 10.0 mi NW 11.5 mph 17.3 mph N/A   Scattered Clouds
10:55 AM 59.7 °F 39.4 °F 47% 30.06 in 10.0 mi NNW 9.2 mph 17.3 mph N/A   Clear
11:15 AM 59.9 °F 40.5 °F 49% 30.06 in 10.0 mi NW 13.8 mph 21.9 mph N/A   Clear
11:35 AM 61.0 °F 41.2 °F 48% 30.06 in 10.0 mi NNW 11.5 mph 19.6 mph N/A   Clear
11:55 AM 62.1 °F 41.5 °F 47% 30.06 in 10.0 mi WNW 16.1 mph 19.6 mph N/A   Clear
12:15 PM 61.9 °F 40.8 °F 46% 30.06 in 10.0 mi NNW 8.1 mph 20.7 mph N/A   Clear
12:35 PM 62.2 °F 41.4 °F 46% 30.06 in 10.0 mi NW 9.2 mph 21.9 mph N/A   Clear
12:55 PM 63.5 °F 40.6 °F 43% 30.05 in 10.0 mi WNW 13.8 mph 23.0 mph N/A   Clear
1:14 PM 63.5 °F 40.5 °F 43% 30.04 in 10.0 mi NW 15.0 mph 21.9 mph N/A   Clear
1:35 PM 64.2 °F 40.8 °F 42% 30.04 in 10.0 mi WNW 13.8 mph 20.7 mph N/A   Clear
1:55 PM 64.6 °F 40.5 °F 41% 30.03 in 10.0 mi WNW 13.8 mph 21.9 mph N/A   Clear
2:14 PM 64.0 °F 38.7 °F 39% 30.03 in 10.0 mi West 15.0 mph 24.2 mph N/A   Clear
2:35 PM 65.3 °F 39.0 °F 38% 30.02 in 10.0 mi WNW 15.0 mph 20.7 mph N/A   Clear
2:54 PM 65.8 °F 39.6 °F 38% 30.02 in 10.0 mi WNW 10.4 mph 19.6 mph N/A   Clear
3:15 PM 64.6 °F 37.6 °F 37% 30.02 in 10.0 mi WNW 13.8 mph 23.0 mph N/A   Clear
3:35 PM 65.3 °F 38.3 °F 37% 30.01 in 10.0 mi NNW 16.1 mph 24.2 mph N/A   Clear
3:54 PM 66.2 °F 39.6 °F 38% 30.01 in 10.0 mi NW 12.7 mph 19.6 mph N/A   Clear
4:15 PM 66.0 °F 41.4 °F 41% 30.02 in 10.0 mi WNW 12.7 mph 17.3 mph N/A   Clear
4:35 PM 66.2 °F 41.4 °F 40% 30.01 in 10.0 mi West 10.4 mph 20.7 mph N/A   Clear
4:54 PM 66.0 °F 41.2 °F 40% 30.01 in 10.0 mi West 13.8 mph 21.9 mph N/A   Clear
5:15 PM 66.0 °F 41.9 °F 41% 30.01 in 10.0 mi NW 12.7 mph 17.3 mph N/A   Clear
5:34 PM 66.2 °F 40.8 °F 40% 30.01 in 10.0 mi WNW 11.5 mph 16.1 mph N/A   Clear
5:55 PM 65.8 °F 41.2 °F 41% 30.01 in 10.0 mi NW 11.5 mph 19.6 mph N/A   Clear
6:14 PM 65.8 °F 40.8 °F 40% 30.01 in 10.0 mi NW 12.7 mph 18.4 mph N/A   Clear
6:35 PM 65.7 °F 41.2 °F 41% 30.01 in 10.0 mi WNW 11.5 mph 18.4 mph N/A   Clear
6:54 PM 64.4 °F 41.2 °F 43% 30.01 in 10.0 mi WNW 12.7 mph 19.6 mph N/A   Clear
7:15 PM 63.7 °F 41.0 °F 43% 30.01 in 10.0 mi WNW 10.4 mph 18.4 mph N/A   Clear
7:34 PM 63.1 °F 41.4 °F 45% 30.01 in 10.0 mi NW 9.2 mph 17.3 mph N/A   Clear
7:55 PM 62.1 °F 42.3 °F 48% 30.01 in 10.0 mi NW 11.5 mph 17.3 mph N/A   Clear
8:15 PM 60.8 °F 42.8 °F 52% 30.01 in 10.0 mi NW 8.1 mph - N/A   Clear
8:35 PM 59.5 °F 43.2 °F 55% 30.01 in 10.0 mi NW 4.6 mph - N/A   Clear
8:54 PM 58.1 °F 43.7 °F 59% 30.01 in 10.0 mi Calm Calm - N/A   Clear
9:15 PM 56.8 °F 43.5 °F 61% 30.00 in 10.0 mi NW 3.5 mph - N/A   Clear
9:34 PM 56.3 °F 42.8 °F 61% 30.01 in 10.0 mi Calm Calm - N/A   Clear
9:55 PM 54.0 °F 42.3 °F 65% 30.01 in 10.0 mi Calm Calm - N/A   Clear
10:14 PM 53.8 °F 42.1 °F 65% 30.01 in 10.0 mi Calm Calm - N/A   Clear
10:35 PM 52.9 °F 42.1 °F 67% 30.00 in 10.0 mi Calm Calm - N/A   Clear
10:55 PM 52.2 °F 42.3 °F 69% 30.00 in 10.0 mi Calm Calm - N/A   Clear
11:15 PM 53.2 °F 41.5 °F 65% 30.00 in 10.0 mi Calm Calm - N/A   Clear
11:35 PM 52.3 °F 42.4 °F 69% 30.00 in 10.0 mi Calm Calm - N/A   Clear
11:55 PM 50.5 °F 42.3 °F 73% 30.00 in 10.0 mi Calm Calm - N/A   Clear